Time;durP1;ratioP1;P1;durP2;ratioP2;P2;SDS_P1;SDS_P2;PMS_P1;PMS_P2;Temp;Humidity;BMP_temperature;BMP_pressure;BME280_temperature;BME280_humidity;BME280_pressure;Samples;Min_cycle;Max_cycle;Signal;HPM_P1;HPM_P2
2022/01/20 00:02:01;;;;;;;;;;;7.00;99.90;;;;;;5127972;27;19912;-72
2022/01/20 00:04:42;;;;;;;;;;;6.90;99.90;;;;;;5126534;27;20365;-72
2022/01/20 00:28:17;;;;;;;;;;;7.30;99.90;;;;;;5127825;27;20006;-71
2022/01/20 00:30:50;;;;;;;;;;;7.40;99.90;;;;;;5129158;27;19915;-72
2022/01/20 00:33:34;;;;;;;;;;;7.40;99.90;;;;;;5129840;27;19912;-70
2022/01/20 00:38:31;;;;;;;;;;;7.40;99.90;;;;;;5126160;27;19911;-71
2022/01/20 00:40:57;;;;;;;;;;;7.40;99.90;;;;;;5129609;27;20326;-71
2022/01/20 00:43:23;;;;;;;;;;;7.40;99.90;;;;;;5127695;27;20405;-72
2022/01/20 00:45:49;;;;;;;;;;;7.50;99.90;;;;;;5122192;27;19915;-70
2022/01/20 00:48:15;;;;;;;;;;;7.50;99.90;;;;;;5123826;27;19924;-73
2022/01/20 00:50:40;;;;;;;;;;;7.50;99.90;;;;;;5120752;27;19937;-72
2022/01/20 00:53:06;;;;;;;;;;;7.40;99.90;;;;;;5131277;27;19911;-72
2022/01/20 00:55:32;;;;;;;;;;;7.50;99.90;;;;;;5130240;27;20365;-71
2022/01/20 00:57:57;;;;;;;;;;;7.50;99.90;;;;;;5124911;27;19915;-71
2022/01/20 01:00:23;;;;;;;;;;;7.50;99.90;;;;;;5128428;27;19935;-72
2022/01/20 01:02:49;;;;;;;;;;;7.50;99.90;;;;;;5128076;27;19960;-72
2022/01/20 01:05:14;;;;;;;;;;;7.50;99.90;;;;;;5132857;27;19916;-70
2022/01/20 01:07:48;;;;;;;;;;;7.50;99.90;;;;;;5129416;27;19979;-72
2022/01/20 01:10:14;;;;;;;;;;;7.60;99.90;;;;;;5125655;27;19916;-73
2022/01/20 01:12:50;;;;;;;;;;;7.60;99.90;;;;;;5128813;27;19911;-72
2022/01/20 01:15:21;;;;;;;;;;;7.60;99.90;;;;;;5130933;27;19957;-73
2022/01/20 01:20:44;;;;;;;;;;;7.70;99.90;;;;;;5123755;27;19926;-71
2022/01/20 01:23:10;;;;;;;;;;;7.70;99.90;;;;;;5128970;27;20372;-72
2022/01/20 01:25:36;;;;;;;;;;;7.70;99.90;;;;;;5122768;27;19912;-71
2022/01/20 01:28:02;;;;;;;;;;;7.70;99.90;;;;;;5131340;27;19911;-71
2022/01/20 01:32:57;;;;;;;;;;;7.70;99.90;;;;;;5127339;27;19996;-71
2022/01/20 01:35:23;;;;;;;;;;;7.70;99.90;;;;;;5125772;27;20006;-71
2022/01/20 01:40:23;;;;;;;;;;;7.70;99.90;;;;;;5128336;27;20256;-71
2022/01/20 01:42:51;;;;;;;;;;;7.70;99.90;;;;;;5127215;27;19950;-70
2022/01/20 01:45:24;;;;;;;;;;;7.70;99.90;;;;;;5129718;27;19957;-71
2022/01/20 01:47:49;;;;;;;;;;;7.70;99.90;;;;;;5128469;27;20404;-71
2022/01/20 01:50:15;;;;;;;;;;;7.70;99.90;;;;;;5124450;27;20006;-75
2022/01/20 01:52:40;;;;;;;;;;;7.70;99.90;;;;;;5112918;27;19935;-71
2022/01/20 01:55:07;;;;;;;;;;;7.70;99.90;;;;;;5122847;27;20281;-70
2022/01/20 01:57:32;;;;;;;;;;;7.70;99.90;;;;;;5127515;27;19920;-71
2022/01/20 01:59:58;;;;;;;;;;;7.60;99.90;;;;;;5122682;27;19956;-71
2022/01/20 02:02:24;;;;;;;;;;;7.60;99.90;;;;;;5142613;27;20365;-73
2022/01/20 02:04:50;;;;;;;;;;;7.60;99.90;;;;;;5124247;27;19915;-72
2022/01/20 02:21:00;;;;;;;;;;;7.70;99.90;;;;;;5122872;27;19923;-73
2022/01/20 02:23:27;;;;;;;;;;;7.70;99.90;;;;;;5131553;27;19908;-72
2022/01/20 02:25:53;;;;;;;;;;;7.60;99.90;;;;;;5127061;27;19912;-70
2022/01/20 02:28:19;;;;;;;;;;;7.60;99.90;;;;;;5122333;27;19936;-70
2022/01/20 02:30:44;;;;;;;;;;;7.60;99.90;;;;;;5127961;27;19915;-72
2022/01/20 02:33:11;;;;;;;;;;;7.70;99.90;;;;;;5124057;27;19981;-71
2022/01/20 02:35:38;;;;;;;;;;;7.70;99.90;;;;;;5124215;27;19916;-72
2022/01/20 02:38:13;;;;;;;;;;;7.70;99.90;;;;;;5130891;27;20274;-74
2022/01/20 02:45:52;;;;;;;;;;;7.50;99.90;;;;;;5125920;27;19987;-71
2022/01/20 02:48:18;;;;;;;;;;;7.60;99.90;;;;;;5120572;27;19913;-72
2022/01/20 02:50:44;;;;;;;;;;;7.60;99.90;;;;;;5117659;27;19924;-70
2022/01/20 02:53:09;;;;;;;;;;;7.50;99.90;;;;;;5119758;27;19947;-70
2022/01/20 02:55:35;;;;;;;;;;;7.50;99.90;;;;;;5124298;27;20421;-72
2022/01/20 02:58:00;;;;;;;;;;;7.40;99.90;;;;;;5129575;27;19986;-73
2022/01/20 03:00:27;;;;;;;;;;;7.40;99.90;;;;;;5126745;27;20440;-70
2022/01/20 03:02:53;;;;;;;;;;;7.20;99.90;;;;;;5128332;27;20003;-72
2022/01/20 03:05:18;;;;;;;;;;;7.10;99.90;;;;;;5129202;27;19919;-71
2022/01/20 03:07:45;;;;;;;;;;;7.10;99.90;;;;;;5125008;27;20067;-71
2022/01/20 03:10:11;;;;;;;;;;;7.00;99.90;;;;;;5123248;27;20002;-71
2022/01/20 03:12:37;;;;;;;;;;;7.00;99.90;;;;;;5121441;27;19955;-70
2022/01/20 03:15:02;;;;;;;;;;;7.00;99.90;;;;;;5125443;27;19911;-70
2022/01/20 03:17:30;;;;;;;;;;;7.00;99.90;;;;;;5124634;27;20007;-72
2022/01/20 03:19:56;;;;;;;;;;;7.00;99.90;;;;;;5129642;27;19959;-71
2022/01/20 03:22:21;;;;;;;;;;;7.00;99.90;;;;;;5126219;27;19908;-72
2022/01/20 03:24:47;;;;;;;;;;;7.00;99.90;;;;;;5131953;27;20677;-71
2022/01/20 03:27:12;;;;;;;;;;;7.00;99.90;;;;;;5129774;27;20034;-71
2022/01/20 03:29:38;;;;;;;;;;;7.00;99.90;;;;;;5129319;27;19935;-74
2022/01/20 03:32:04;;;;;;;;;;;6.90;99.90;;;;;;5125881;27;19912;-70
2022/01/20 03:34:29;;;;;;;;;;;6.80;99.90;;;;;;5129529;27;20261;-70
2022/01/20 03:36:55;;;;;;;;;;;6.70;99.90;;;;;;5126531;28;19918;-71
2022/01/20 03:39:20;;;;;;;;;;;6.70;99.90;;;;;;5129472;28;19920;-72
2022/01/20 03:41:46;;;;;;;;;;;6.50;99.90;;;;;;5130407;28;20375;-70
2022/01/20 03:44:12;;;;;;;;;;;6.60;99.90;;;;;;5125731;27;19919;-71
2022/01/20 03:46:37;;;;;;;;;;;6.60;99.90;;;;;;5128554;27;20360;-72
2022/01/20 03:49:53;;;;;;;;;;;6.50;99.90;;;;;;5123581;27;19912;-73
2022/01/20 03:51:49;;;;;;;;;;;6.50;99.90;;;;;;5115963;28;20006;-73
2022/01/20 03:54:15;;;;;;;;;;;6.50;99.90;;;;;;5123750;28;19954;-71
2022/01/20 03:56:40;;;;;;;;;;;6.60;99.90;;;;;;5126090;27;19994;-71
2022/01/20 03:59:06;;;;;;;;;;;6.70;99.90;;;;;;5117622;27;19919;-72
2022/01/20 04:01:31;;;;;;;;;;;6.70;99.90;;;;;;5127129;28;19947;-71
2022/01/20 04:03:57;;;;;;;;;;;6.80;99.90;;;;;;5120407;28;19916;-70
2022/01/20 04:06:24;;;;;;;;;;;6.80;99.90;;;;;;5124975;28;19915;-72
2022/01/20 04:08:50;;;;;;;;;;;7.00;99.90;;;;;;5121241;28;19911;-74
2022/01/20 04:11:23;;;;;;;;;;;7.20;99.90;;;;;;5128670;28;20438;-70
2022/01/20 04:13:49;;;;;;;;;;;7.30;99.90;;;;;;5125505;28;19912;-72
2022/01/20 04:16:18;;;;;;;;;;;7.30;99.90;;;;;;5127196;28;19911;-72
2022/01/20 04:18:52;;;;;;;;;;;7.30;99.90;;;;;;5120608;28;19945;-71
2022/01/20 04:21:19;;;;;;;;;;;7.20;99.90;;;;;;5128991;28;19998;-72
2022/01/20 04:23:45;;;;;;;;;;;7.30;99.90;;;;;;5128530;27;19951;-71
2022/01/20 04:26:10;;;;;;;;;;;7.30;99.90;;;;;;5130907;27;19949;-71
2022/01/20 04:28:36;;;;;;;;;;;7.30;99.90;;;;;;5131826;27;19915;-73
2022/01/20 04:31:01;;;;;;;;;;;7.30;99.90;;;;;;5119148;27;19947;-70
2022/01/20 04:33:27;;;;;;;;;;;7.20;99.90;;;;;;5128325;27;19915;-71
2022/01/20 04:35:52;;;;;;;;;;;7.20;99.90;;;;;;5132906;27;20407;-70
2022/01/20 04:38:18;;;;;;;;;;;7.30;99.90;;;;;;5129392;27;19911;-71
2022/01/20 04:40:44;;;;;;;;;;;7.30;99.90;;;;;;5128754;27;19950;-72
2022/01/20 04:43:09;;;;;;;;;;;7.30;99.90;;;;;;5130909;27;19998;-71
2022/01/20 04:45:43;;;;;;;;;;;7.30;99.90;;;;;;5124711;27;20279;-71
2022/01/20 04:48:29;;;;;;;;;;;7.20;99.90;;;;;;5126310;27;20413;-73
2022/01/20 04:59:07;;;;;;;;;;;7.30;99.90;;;;;;5125452;27;19972;-71
2022/01/20 05:01:33;;;;;;;;;;;7.50;99.90;;;;;;5127203;27;19919;-73
2022/01/20 05:04:01;;;;;;;;;;;7.50;99.90;;;;;;5131946;27;19926;-72
2022/01/20 05:06:26;;;;;;;;;;;7.50;99.90;;;;;;5134038;27;20034;-70
2022/01/20 05:08:52;;;;;;;;;;;7.60;99.90;;;;;;5125940;27;20272;-71
2022/01/20 05:11:18;;;;;;;;;;;7.60;99.90;;;;;;5127528;27;20022;-72
2022/01/20 05:13:47;;;;;;;;;;;7.60;99.90;;;;;;5132438;27;19915;-71
2022/01/20 05:16:12;;;;;;;;;;;7.60;99.90;;;;;;5131205;27;19907;-71
2022/01/20 05:18:38;;;;;;;;;;;7.60;99.90;;;;;;5133578;27;19919;-71
2022/01/20 05:21:04;;;;;;;;;;;7.60;99.90;;;;;;5128979;27;20025;-71
2022/01/20 05:23:29;;;;;;;;;;;7.50;99.90;;;;;;5125475;27;20379;-72
2022/01/20 05:25:55;;;;;;;;;;;7.50;99.90;;;;;;5124646;27;19912;-72
2022/01/20 05:28:20;;;;;;;;;;;7.50;99.90;;;;;;5118788;27;19930;-71
2022/01/20 05:30:46;;;;;;;;;;;7.40;99.90;;;;;;5120952;27;19915;-72
2022/01/20 05:33:12;;;;;;;;;;;7.40;99.90;;;;;;5129761;27;20312;-72
2022/01/20 05:35:37;;;;;;;;;;;7.40;99.90;;;;;;5126733;27;19911;-72
2022/01/20 05:38:03;;;;;;;;;;;7.40;99.90;;;;;;5118779;27;20316;-71
2022/01/20 05:40:29;;;;;;;;;;;7.40;99.90;;;;;;5128657;27;19917;-71
2022/01/20 05:42:54;;;;;;;;;;;7.40;99.90;;;;;;5128913;27;19912;-72
2022/01/20 05:45:20;;;;;;;;;;;7.30;99.90;;;;;;5131883;27;19918;-72
2022/01/20 05:47:48;;;;;;;;;;;7.50;99.90;;;;;;5133357;27;19972;-72
2022/01/20 05:50:18;;;;;;;;;;;7.50;99.90;;;;;;5123719;27;19916;-71
2022/01/20 05:52:44;;;;;;;;;;;7.40;99.90;;;;;;5128173;27;19911;-72
2022/01/20 05:55:15;;;;;;;;;;;7.40;99.90;;;;;;5126081;27;20207;-71
2022/01/20 05:57:41;;;;;;;;;;;7.50;99.90;;;;;;5127325;27;20495;-74
2022/01/20 06:00:08;;;;;;;;;;;7.40;99.90;;;;;;5123579;27;19919;-72
2022/01/20 06:02:36;;;;;;;;;;;7.40;99.90;;;;;;5132316;27;19907;-74
2022/01/20 06:05:03;;;;;;;;;;;7.50;99.90;;;;;;5130329;27;19927;-73
2022/01/20 06:07:29;;;;;;;;;;;7.50;99.90;;;;;;5127198;27;19912;-71
2022/01/20 06:09:55;;;;;;;;;;;7.50;99.90;;;;;;5126449;27;19927;-71
2022/01/20 06:12:20;;;;;;;;;;;7.50;99.90;;;;;;5127482;27;19926;-72
2022/01/20 06:14:46;;;;;;;;;;;7.60;99.90;;;;;;5121419;27;19919;-73
2022/01/20 06:17:15;;;;;;;;;;;7.60;99.90;;;;;;5121125;27;19911;-72
2022/01/20 06:20:01;;;;;;;;;;;7.50;99.90;;;;;;5116268;27;19912;-71
2022/01/20 06:22:26;;;;;;;;;;;7.60;99.90;;;;;;5117702;27;19919;-71
2022/01/20 06:24:52;;;;;;;;;;;7.50;99.90;;;;;;5118822;27;19911;-71
2022/01/20 06:27:17;;;;;;;;;;;7.60;99.90;;;;;;5127740;27;19915;-71
2022/01/20 06:29:46;;;;;;;;;;;7.60;99.90;;;;;;5129930;27;20463;-72
2022/01/20 06:32:12;;;;;;;;;;;7.60;99.90;;;;;;5124447;27;19998;-72
2022/01/20 06:34:37;;;;;;;;;;;7.70;99.90;;;;;;5131424;27;19990;-72
2022/01/20 06:37:03;;;;;;;;;;;7.70;99.90;;;;;;5123255;27;19968;-72
2022/01/20 06:39:28;;;;;;;;;;;7.70;99.90;;;;;;5129456;27;20040;-71
2022/01/20 06:41:54;;;;;;;;;;;7.70;99.90;;;;;;5129814;27;19950;-72
2022/01/20 06:44:21;;;;;;;;;;;7.70;99.90;;;;;;5128928;27;20026;-72
2022/01/20 06:46:48;;;;;;;;;;;7.70;99.90;;;;;;5125353;27;20444;-72
2022/01/20 06:49:14;;;;;;;;;;;7.80;99.90;;;;;;5127250;27;20163;-72
2022/01/20 06:51:40;;;;;;;;;;;7.80;99.90;;;;;;5130369;27;19916;-73
2022/01/20 06:54:05;;;;;;;;;;;7.80;99.90;;;;;;5128629;27;19923;-70
2022/01/20 06:56:31;;;;;;;;;;;7.80;99.90;;;;;;5124184;27;19947;-71
2022/01/20 06:58:57;;;;;;;;;;;7.80;99.90;;;;;;5130327;27;19998;-73
2022/01/20 07:01:23;;;;;;;;;;;7.80;99.90;;;;;;5119154;27;20013;-73
2022/01/20 07:03:49;;;;;;;;;;;7.70;99.90;;;;;;5124349;27;19918;-72
2022/01/20 07:06:14;;;;;;;;;;;7.60;99.90;;;;;;5131068;27;20353;-70
2022/01/20 07:08:40;;;;;;;;;;;7.70;99.90;;;;;;5129165;27;19915;-70
2022/01/20 07:11:05;;;;;;;;;;;7.60;99.90;;;;;;5123167;27;19916;-73
2022/01/20 07:13:31;;;;;;;;;;;7.60;99.90;;;;;;5127036;27;20292;-72
2022/01/20 07:15:57;;;;;;;;;;;7.70;99.90;;;;;;5125597;27;19923;-72
2022/01/20 07:18:22;;;;;;;;;;;7.70;99.90;;;;;;5122884;27;20027;-73
2022/01/20 07:20:48;;;;;;;;;;;7.80;99.90;;;;;;5121776;27;19963;-72
2022/01/20 07:23:13;;;;;;;;;;;7.90;99.90;;;;;;5125815;27;19922;-73
2022/01/20 07:25:39;;;;;;;;;;;7.90;99.90;;;;;;5128057;27;19919;-71
2022/01/20 07:28:05;;;;;;;;;;;7.80;99.90;;;;;;5118051;27;19912;-70
2022/01/20 07:30:30;;;;;;;;;;;7.80;99.90;;;;;;5123475;27;19939;-73
2022/01/20 07:32:57;;;;;;;;;;;7.80;99.90;;;;;;5120655;28;19993;-72
2022/01/20 07:35:23;;;;;;;;;;;7.70;99.90;;;;;;5124648;28;20415;-70
2022/01/20 07:37:48;;;;;;;;;;;7.80;99.90;;;;;;5126454;28;19999;-74
2022/01/20 07:40:14;;;;;;;;;;;7.90;99.90;;;;;;5125788;28;20402;-72
2022/01/20 07:42:40;;;;;;;;;;;8.00;99.90;;;;;;5117611;28;20265;-75
2022/01/20 07:45:06;;;;;;;;;;;7.90;99.90;;;;;;5130678;27;19907;-70
2022/01/20 07:47:31;;;;;;;;;;;8.00;99.90;;;;;;5120641;28;19916;-72
2022/01/20 07:49:57;;;;;;;;;;;8.10;99.90;;;;;;5124022;27;20011;-74
2022/01/20 07:52:22;;;;;;;;;;;8.10;99.90;;;;;;5121037;28;19923;-70
2022/01/20 07:54:48;;;;;;;;;;;8.20;99.90;;;;;;5121989;28;19914;-72
2022/01/20 07:57:14;;;;;;;;;;;8.20;99.90;;;;;;5121003;28;19981;-71
2022/01/20 07:59:39;;;;;;;;;;;8.20;99.90;;;;;;5133627;28;19915;-70
2022/01/20 08:02:05;;;;;;;;;;;8.20;99.90;;;;;;5134821;27;19912;-71
2022/01/20 08:04:30;;;;;;;;;;;8.20;99.90;;;;;;5135152;27;19980;-75
2022/01/20 08:06:56;;;;;;;;;;;8.30;99.90;;;;;;5135550;27;19911;-71
2022/01/20 08:09:23;;;;;;;;;;;8.50;99.90;;;;;;5129092;27;20132;-72
2022/01/20 08:11:49;;;;;;;;;;;8.40;99.90;;;;;;5121721;27;19959;-73
2022/01/20 08:14:14;;;;;;;;;;;8.40;99.90;;;;;;5115362;27;19954;-72
2022/01/20 08:16:40;;;;;;;;;;;8.30;99.90;;;;;;5121969;27;20341;-72
2022/01/20 08:19:06;;;;;;;;;;;8.20;99.90;;;;;;5132277;27;20059;-72
2022/01/20 08:21:31;;;;;;;;;;;8.10;99.90;;;;;;5131352;27;20423;-72
2022/01/20 08:23:57;;;;;;;;;;;8.10;99.90;;;;;;5125803;27;20322;-72
2022/01/20 08:26:23;;;;;;;;;;;8.10;99.90;;;;;;5135098;27;20006;-72
2022/01/20 08:28:48;;;;;;;;;;;8.00;99.90;;;;;;5132179;27;20365;-71
2022/01/20 08:31:14;;;;;;;;;;;8.00;99.90;;;;;;5119715;27;19998;-73
2022/01/20 08:33:39;;;;;;;;;;;8.20;99.90;;;;;;5121086;27;19912;-73
2022/01/20 08:36:05;;;;;;;;;;;8.10;99.90;;;;;;5134054;27;20269;-71
2022/01/20 08:38:31;;;;;;;;;;;8.10;99.90;;;;;;5131297;27;20011;-72
2022/01/20 08:40:57;;;;;;;;;;;8.10;99.90;;;;;;5129705;27;19955;-71
2022/01/20 08:43:23;;;;;;;;;;;8.10;99.90;;;;;;5134119;27;19927;-72
2022/01/20 08:45:48;;;;;;;;;;;8.10;99.90;;;;;;5133482;27;19911;-73
2022/01/20 08:48:14;;;;;;;;;;;8.10;99.90;;;;;;5131642;27;19919;-73
2022/01/20 08:50:41;;;;;;;;;;;8.10;99.90;;;;;;5128770;27;19916;-73
2022/01/20 08:53:07;;;;;;;;;;;8.10;99.90;;;;;;5121396;27;19916;-72
2022/01/20 08:55:34;;;;;;;;;;;8.10;99.90;;;;;;5130143;27;20369;-72
2022/01/20 08:58:00;;;;;;;;;;;8.10;99.90;;;;;;5132681;27;20002;-71
2022/01/20 09:00:26;;;;;;;;;;;8.00;99.90;;;;;;5132935;27;19970;-72
2022/01/20 09:02:52;;;;;;;;;;;7.90;99.90;;;;;;5123784;27;19963;-72
2022/01/20 09:05:44;;;;;;;;;;;8.00;99.90;;;;;;5129060;27;19965;-74
2022/01/20 09:08:10;;;;;;;;;;;7.90;99.90;;;;;;5127249;27;20361;-73
2022/01/20 09:10:42;;;;;;;;;;;7.70;99.90;;;;;;5127199;27;19922;-73
2022/01/20 09:15:54;;;;;;;;;;;7.60;99.90;;;;;;5122374;27;19937;-72
2022/01/20 09:18:22;;;;;;;;;;;7.60;99.90;;;;;;5122912;27;20398;-71
2022/01/20 09:20:48;;;;;;;;;;;7.60;99.90;;;;;;5125849;27;19915;-73
2022/01/20 09:23:14;;;;;;;;;;;7.70;99.90;;;;;;5131987;27;19965;-73
2022/01/20 09:25:40;;;;;;;;;;;7.80;99.90;;;;;;5125877;27;19916;-72
2022/01/20 09:28:06;;;;;;;;;;;7.80;99.90;;;;;;5124760;27;19912;-72
2022/01/20 09:30:32;;;;;;;;;;;7.80;99.90;;;;;;5129378;27;19980;-72
2022/01/20 09:33:01;;;;;;;;;;;7.90;99.90;;;;;;5117056;27;19930;-68
2022/01/20 09:35:32;;;;;;;;;;;7.90;99.90;;;;;;5122715;27;19932;-67
2022/01/20 09:37:58;;;;;;;;;;;7.80;99.90;;;;;;5132008;27;19927;-68
2022/01/20 09:40:24;;;;;;;;;;;7.60;99.90;;;;;;5125113;27;19998;-68
2022/01/20 09:42:50;;;;;;;;;;;7.60;99.90;;;;;;5122457;27;20383;-67
2022/01/20 09:45:16;;;;;;;;;;;7.60;99.90;;;;;;5133172;27;20056;-68
2022/01/20 09:47:44;;;;;;;;;;;7.60;99.90;;;;;;5121303;27;20301;-68
2022/01/20 09:50:15;;;;;;;;;;;7.50;99.90;;;;;;5117035;27;20014;-68
2022/01/20 09:52:43;;;;;;;;;;;7.60;99.90;;;;;;5125611;27;20006;-67
2022/01/20 09:55:09;;;;;;;;;;;7.60;99.90;;;;;;5127411;27;20023;-68
2022/01/20 09:57:35;;;;;;;;;;;7.60;99.90;;;;;;5126380;27;20034;-68
2022/01/20 10:00:03;;;;;;;;;;;7.60;99.90;;;;;;5134003;27;19943;-68
2022/01/20 10:02:28;;;;;;;;;;;7.60;99.90;;;;;;5130468;27;20293;-68
2022/01/20 10:04:55;;;;;;;;;;;7.60;99.90;;;;;;5123974;27;19922;-70
2022/01/20 10:07:20;;;;;;;;;;;7.60;99.90;;;;;;5117070;27;20033;-68
2022/01/20 10:09:49;;;;;;;;;;;7.50;99.90;;;;;;5134573;27;19954;-68
2022/01/20 10:12:16;;;;;;;;;;;7.60;99.90;;;;;;5122264;27;19912;-68
2022/01/20 10:14:41;;;;;;;;;;;7.50;99.90;;;;;;5130348;27;19911;-69
2022/01/20 10:17:14;;;;;;;;;;;7.70;99.90;;;;;;5126191;27;19954;-68
2022/01/20 10:19:40;;;;;;;;;;;7.80;99.90;;;;;;5121769;27;20321;-68
2022/01/20 10:22:15;;;;;;;;;;;7.80;99.90;;;;;;5129220;27;20006;-69
2022/01/20 10:24:41;;;;;;;;;;;7.80;99.90;;;;;;5126630;27;19920;-68
2022/01/20 10:27:09;;;;;;;;;;;7.80;99.90;;;;;;5122631;27;19915;-69
2022/01/20 10:29:34;;;;;;;;;;;7.70;99.90;;;;;;5133572;27;19915;-68
2022/01/20 10:32:00;;;;;;;;;;;7.60;99.90;;;;;;5119498;27;19911;-69
2022/01/20 10:34:35;;;;;;;;;;;7.60;99.90;;;;;;5131098;27;19912;-68
2022/01/20 10:37:01;;;;;;;;;;;7.60;99.90;;;;;;5123221;27;19916;-69
2022/01/20 10:39:28;;;;;;;;;;;7.60;99.90;;;;;;5119333;27;20450;-68
2022/01/20 10:41:59;;;;;;;;;;;7.50;99.90;;;;;;5126489;27;20461;-68
2022/01/20 10:44:24;;;;;;;;;;;7.50;99.90;;;;;;5120177;27;20284;-68
2022/01/20 10:46:52;;;;;;;;;;;7.50;99.90;;;;;;5129938;27;19916;-68
2022/01/20 10:49:18;;;;;;;;;;;7.50;99.90;;;;;;5131305;27;19920;-64
2022/01/20 10:51:54;;;;;;;;;;;7.50;99.90;;;;;;5128548;27;19915;-64
2022/01/20 10:54:20;;;;;;;;;;;7.60;99.90;;;;;;5131836;27;19928;-64
2022/01/20 10:56:46;;;;;;;;;;;7.80;99.90;;;;;;5129026;27;19911;-65
2022/01/20 10:59:12;;;;;;;;;;;7.80;99.90;;;;;;5128883;27;20148;-67
2022/01/20 11:01:38;;;;;;;;;;;7.80;99.90;;;;;;5126866;27;19911;-65
2022/01/20 11:04:03;;;;;;;;;;;7.80;99.90;;;;;;5130374;27;19998;-65
2022/01/20 11:06:31;;;;;;;;;;;7.80;99.90;;;;;;5114187;27;20277;-69
2022/01/20 11:08:58;;;;;;;;;;;7.90;99.90;;;;;;5121028;27;20381;-68
2022/01/20 11:11:23;;;;;;;;;;;8.00;99.90;;;;;;5117513;27;19915;-67
2022/01/20 11:13:49;;;;;;;;;;;8.10;99.90;;;;;;5133517;27;19998;-67
2022/01/20 11:16:15;;;;;;;;;;;8.30;99.90;;;;;;5131765;27;19911;-68
2022/01/20 11:18:42;;;;;;;;;;;8.40;99.90;;;;;;5124306;27;19911;-68
2022/01/20 11:21:09;;;;;;;;;;;8.40;99.90;;;;;;5129777;27;19945;-67
2022/01/20 11:23:36;;;;;;;;;;;8.40;99.90;;;;;;5131377;27;19956;-69
2022/01/20 11:26:03;;;;;;;;;;;8.50;99.90;;;;;;5129653;27;20311;-67
2022/01/20 11:28:29;;;;;;;;;;;8.50;99.90;;;;;;5129466;27;19957;-67
2022/01/20 11:30:57;;;;;;;;;;;8.60;99.90;;;;;;5130272;27;19916;-66
2022/01/20 11:33:36;;;;;;;;;;;8.70;99.90;;;;;;5126226;28;19958;-66
2022/01/20 11:36:02;;;;;;;;;;;8.70;99.90;;;;;;5130160;27;19911;-66
2022/01/20 11:38:47;;;;;;;;;;;8.70;99.90;;;;;;5125504;28;19928;-66
2022/01/20 11:41:14;;;;;;;;;;;8.70;99.90;;;;;;5125540;27;19946;-67
2022/01/20 11:43:40;;;;;;;;;;;8.80;99.90;;;;;;5127774;28;20376;-67
2022/01/20 11:46:14;;;;;;;;;;;9.00;99.90;;;;;;5124391;27;19912;-69
2022/01/20 11:48:59;;;;;;;;;;;9.10;99.90;;;;;;5130070;28;19918;-67
2022/01/20 11:51:44;;;;;;;;;;;9.10;99.90;;;;;;5129700;28;20307;-67
2022/01/20 11:54:11;;;;;;;;;;;9.20;99.90;;;;;;5128654;28;19912;-67
2022/01/20 11:56:40;;;;;;;;;;;9.30;99.90;;;;;;5128664;28;20453;-68
2022/01/20 11:59:07;;;;;;;;;;;9.40;99.90;;;;;;5130366;27;19992;-66
2022/01/20 12:01:48;;;;;;;;;;;9.50;99.90;;;;;;5127774;28;19972;-68
2022/01/20 12:04:14;;;;;;;;;;;9.50;99.90;;;;;;5129584;27;19919;-70
2022/01/20 12:06:45;;;;;;;;;;;9.50;99.90;;;;;;5131745;27;19915;-69
2022/01/20 12:09:12;;;;;;;;;;;9.60;99.90;;;;;;5131716;27;19912;-68
2022/01/20 12:11:42;;;;;;;;;;;9.70;99.90;;;;;;5115877;28;20292;-69
2022/01/20 12:14:08;;;;;;;;;;;9.70;99.90;;;;;;5120586;27;20349;-68
2022/01/20 12:16:35;;;;;;;;;;;9.70;99.90;;;;;;5123592;28;20377;-69
2022/01/20 12:19:01;;;;;;;;;;;9.70;99.90;;;;;;5128581;28;19932;-70
2022/01/20 12:21:30;;;;;;;;;;;9.70;99.90;;;;;;5115975;28;19959;-70
2022/01/20 12:23:56;;;;;;;;;;;9.70;99.90;;;;;;5129214;28;20399;-69
2022/01/20 12:26:22;;;;;;;;;;;9.70;99.90;;;;;;5122476;28;19927;-69
2022/01/20 12:28:58;;;;;;;;;;;9.70;99.90;;;;;;5114866;28;19916;-70
2022/01/20 12:31:23;;;;;;;;;;;9.70;99.90;;;;;;5123973;28;19939;-68
2022/01/20 12:33:52;;;;;;;;;;;9.60;99.90;;;;;;5123840;27;19927;-70
2022/01/20 12:36:18;;;;;;;;;;;9.60;99.90;;;;;;5141078;27;19919;-68
2022/01/20 12:38:47;;;;;;;;;;;9.70;99.90;;;;;;5123170;28;19918;-69
2022/01/20 12:41:13;;;;;;;;;;;9.60;99.90;;;;;;5125894;28;19919;-69
2022/01/20 12:43:43;;;;;;;;;;;9.50;99.90;;;;;;5129511;28;20300;-70
2022/01/20 12:46:10;;;;;;;;;;;9.60;99.90;;;;;;5131252;27;20345;-69
2022/01/20 12:48:37;;;;;;;;;;;9.60;99.90;;;;;;5125636;27;19918;-70
2022/01/20 12:51:06;;;;;;;;;;;9.50;99.90;;;;;;5129993;27;19980;-69
2022/01/20 12:53:33;;;;;;;;;;;9.50;99.90;;;;;;5125897;27;19916;-69
2022/01/20 12:55:59;;;;;;;;;;;9.30;99.90;;;;;;5130481;27;19911;-69
2022/01/20 12:58:25;;;;;;;;;;;9.30;99.90;;;;;;5123265;27;19918;-70
2022/01/20 13:01:00;;;;;;;;;;;9.20;99.90;;;;;;5129402;27;19999;-69
2022/01/20 13:03:33;;;;;;;;;;;9.10;99.90;;;;;;5127664;27;19950;-69
2022/01/20 13:05:59;;;;;;;;;;;8.80;99.90;;;;;;5128421;27;19919;-69
2022/01/20 13:08:31;;;;;;;;;;;8.70;99.90;;;;;;5127227;27;19952;-69
2022/01/20 13:11:07;;;;;;;;;;;8.70;99.90;;;;;;5128718;27;19922;-69
2022/01/20 13:13:33;;;;;;;;;;;8.60;99.90;;;;;;5128819;27;19919;-69
2022/01/20 13:16:08;;;;;;;;;;;8.60;99.90;;;;;;5127480;27;19907;-69
2022/01/20 13:18:34;;;;;;;;;;;8.50;99.90;;;;;;5125419;27;20429;-69
2022/01/20 13:21:01;;;;;;;;;;;8.40;99.90;;;;;;5120048;27;19997;-69
2022/01/20 13:23:58;;;;;;;;;;;8.50;99.90;;;;;;5130226;27;19991;-70
2022/01/20 13:26:26;;;;;;;;;;;8.60;99.90;;;;;;5116999;27;19911;-69
2022/01/20 13:28:59;;;;;;;;;;;8.70;99.90;;;;;;5120840;27;19911;-68
2022/01/20 13:31:25;;;;;;;;;;;8.70;99.90;;;;;;5120815;27;19960;-68
2022/01/20 13:33:51;;;;;;;;;;;8.70;99.90;;;;;;5128962;27;19911;-69
2022/01/20 13:36:19;;;;;;;;;;;8.70;99.90;;;;;;5120171;27;19923;-69
2022/01/20 13:38:48;;;;;;;;;;;8.80;99.90;;;;;;5126753;27;19919;-68
2022/01/20 13:41:22;;;;;;;;;;;8.70;99.90;;;;;;5114741;27;19911;-70
2022/01/20 13:46:40;;;;;;;;;;;8.70;99.90;;;;;;5124776;27;20303;-68
2022/01/20 13:49:07;;;;;;;;;;;8.70;99.90;;;;;;5129766;27;20429;-68
2022/01/20 13:51:32;;;;;;;;;;;8.60;99.90;;;;;;5121425;27;19920;-69
2022/01/20 13:53:58;;;;;;;;;;;8.60;99.90;;;;;;5123494;27;20272;-68
2022/01/20 13:56:23;;;;;;;;;;;8.50;99.90;;;;;;5125880;27;19938;-68
2022/01/20 13:58:50;;;;;;;;;;;8.50;99.90;;;;;;5119394;27;19912;-68
2022/01/20 14:01:15;;;;;;;;;;;8.60;99.90;;;;;;5130702;27;19911;-70
2022/01/20 14:03:41;;;;;;;;;;;8.70;99.90;;;;;;5130796;27;19973;-70
2022/01/20 14:06:07;;;;;;;;;;;8.70;99.90;;;;;;5131377;27;20304;-70
2022/01/20 14:08:36;;;;;;;;;;;8.70;99.90;;;;;;5127367;27;19920;-70
2022/01/20 14:11:02;;;;;;;;;;;8.80;99.90;;;;;;5126093;27;20517;-70
2022/01/20 14:13:30;;;;;;;;;;;8.80;99.90;;;;;;5126533;27;21513;-69
2022/01/20 14:15:57;;;;;;;;;;;8.80;99.90;;;;;;5125168;27;19911;-69
2022/01/20 14:18:28;;;;;;;;;;;8.80;99.90;;;;;;5122072;27;20022;-69
2022/01/20 14:20:53;;;;;;;;;;;8.90;99.90;;;;;;5125304;27;19918;-70
2022/01/20 14:23:19;;;;;;;;;;;9.00;99.90;;;;;;5119363;27;19927;-70
2022/01/20 14:25:46;;;;;;;;;;;9.00;99.90;;;;;;5130171;27;20280;-70
2022/01/20 14:28:12;;;;;;;;;;;9.10;99.90;;;;;;5123978;27;20384;-69
2022/01/20 14:30:38;;;;;;;;;;;9.10;99.90;;;;;;5131251;27;19993;-71
2022/01/20 14:33:04;;;;;;;;;;;9.30;99.90;;;;;;5119414;27;19950;-69
2022/01/20 14:35:31;;;;;;;;;;;9.20;99.90;;;;;;5127879;27;19954;-69
2022/01/20 14:37:58;;;;;;;;;;;9.20;99.90;;;;;;5125345;27;20297;-70
2022/01/20 14:40:23;;;;;;;;;;;9.10;99.90;;;;;;5127042;27;19911;-69
2022/01/20 14:42:50;;;;;;;;;;;9.00;99.90;;;;;;5123870;27;19934;-69
2022/01/20 14:45:18;;;;;;;;;;;8.90;99.90;;;;;;5131372;27;19990;-70
2022/01/20 14:47:44;;;;;;;;;;;8.80;99.90;;;;;;5125146;27;19934;-69
2022/01/20 14:50:10;;;;;;;;;;;8.80;99.90;;;;;;5129802;27;19919;-69
2022/01/20 14:52:36;;;;;;;;;;;8.70;99.90;;;;;;5126346;27;20469;-69
2022/01/20 14:55:03;;;;;;;;;;;8.60;99.90;;;;;;5128542;27;19915;-69
2022/01/20 14:57:28;;;;;;;;;;;8.40;99.90;;;;;;5123202;27;19912;-69
2022/01/20 14:59:55;;;;;;;;;;;8.40;99.90;;;;;;5129017;27;19926;-70
2022/01/20 15:02:20;;;;;;;;;;;8.30;99.90;;;;;;5130517;27;19920;-69
2022/01/20 15:04:48;;;;;;;;;;;8.30;99.90;;;;;;5129507;27;19921;-68
2022/01/20 15:07:14;;;;;;;;;;;8.30;99.90;;;;;;5127991;27;19922;-69
2022/01/20 15:09:39;;;;;;;;;;;8.30;99.90;;;;;;5124035;27;19911;-70
2022/01/20 15:12:08;;;;;;;;;;;8.30;99.90;;;;;;5124328;27;20296;-70
2022/01/20 15:14:33;;;;;;;;;;;8.10;99.90;;;;;;5132268;27;19965;-69
2022/01/20 15:16:59;;;;;;;;;;;8.10;99.90;;;;;;5118017;27;20306;-69
2022/01/20 15:19:25;;;;;;;;;;;7.90;99.90;;;;;;5125782;27;19915;-69
2022/01/20 15:21:50;;;;;;;;;;;7.80;99.90;;;;;;5128850;27;19911;-69
2022/01/20 15:24:16;;;;;;;;;;;7.80;99.90;;;;;;5129545;27;19916;-69
2022/01/20 15:26:42;;;;;;;;;;;7.80;99.90;;;;;;5126738;27;20290;-69
2022/01/20 15:29:07;;;;;;;;;;;7.80;99.90;;;;;;5128375;27;19915;-68
2022/01/20 15:31:36;;;;;;;;;;;7.80;99.90;;;;;;5129651;27;20372;-69
2022/01/20 15:34:07;;;;;;;;;;;7.80;99.90;;;;;;5127600;27;19911;-71
2022/01/20 15:36:33;;;;;;;;;;;7.80;99.90;;;;;;5128105;27;19975;-69